createdAt,value
2023-05-06T00:00:12.969Z,4.65
2023-05-06T00:03:04.086Z,4.70
2023-05-06T00:05:34.308Z,4.20
2023-05-06T00:08:03.279Z,4.15
2023-05-06T00:10:32.047Z,4.50
2023-05-06T00:13:01.088Z,3.95
2023-05-06T00:15:31.968Z,3.95
2023-05-06T00:18:02.471Z,3.92
2023-05-06T00:20:31.399Z,4.38
2023-05-06T00:23:01.899Z,4.65
2023-05-06T00:25:30.566Z,4.10
2023-05-06T00:27:59.525Z,4.40
2023-05-06T00:30:28.653Z,4.47
2023-05-06T00:32:57.582Z,4.35
2023-05-06T00:35:26.430Z,4.45
2023-05-06T00:37:59.736Z,3.97
2023-05-06T00:40:29.869Z,4.32
2023-05-06T00:42:58.850Z,4.20
2023-05-06T00:45:27.794Z,3.67
2023-05-06T00:47:58.054Z,4.28
2023-05-06T00:50:29.827Z,4.47
2023-05-06T00:53:01.192Z,4.43
2023-05-06T00:55:32.569Z,4.47
2023-05-06T00:58:02.103Z,3.60
2023-05-06T01:00:31.001Z,4.82
2023-05-06T01:03:00.355Z,3.95
2023-05-06T01:05:41.480Z,4.50
2023-05-06T01:08:22.548Z,4.50
2023-05-06T01:10:58.301Z,4.20
2023-05-06T01:13:37.611Z,4.18
2023-05-06T01:16:11.541Z,3.50
2023-05-06T01:18:42.189Z,3.60
2023-05-06T01:21:12.709Z,3.58
2023-05-06T01:23:55.217Z,3.40
2023-05-06T01:26:24.098Z,4.13
2023-05-06T01:28:53.326Z,3.35
2023-05-06T01:31:27.918Z,3.65
2023-05-06T01:34:11.438Z,3.60
2023-05-06T01:36:50.754Z,3.95
2023-05-06T01:39:27.375Z,3.55
2023-05-06T01:42:00.133Z,3.70
2023-05-06T01:44:34.721Z,3.65
2023-05-06T01:47:05.070Z,3.63
2023-05-06T01:49:37.056Z,4.03
2023-05-06T01:52:06.053Z,3.85
2023-05-06T01:54:36.331Z,3.85
2023-05-06T01:57:05.101Z,4.00
2023-05-06T01:59:34.559Z,3.72
2023-05-06T02:02:03.236Z,3.85
2023-05-06T02:04:33.114Z,3.67
2023-05-06T02:07:02.053Z,3.90
2023-05-06T02:09:30.933Z,3.88
2023-05-06T02:12:04.913Z,3.67
2023-05-06T02:14:33.896Z,3.80
2023-05-06T02:17:05.820Z,3.72
2023-05-06T02:19:35.737Z,3.60
2023-05-06T02:22:04.401Z,3.42
2023-05-06T02:24:33.450Z,3.80
2023-05-06T02:27:02.358Z,3.60
2023-05-06T02:29:33.248Z,3.75
2023-05-06T02:32:02.049Z,3.67
2023-05-06T02:34:31.003Z,3.40
2023-05-06T02:37:00.042Z,3.25
2023-05-06T02:39:28.993Z,3.40
2023-05-06T02:41:57.621Z,4.03
2023-05-06T02:44:26.631Z,3.10
2023-05-06T02:46:56.675Z,3.58
2023-05-06T02:49:25.625Z,3.60
2023-05-06T02:51:54.344Z,3.50
2023-05-06T02:54:23.296Z,3.70
2023-05-06T02:56:52.001Z,3.45
2023-05-06T02:59:21.109Z,3.63
2023-05-06T03:01:49.771Z,3.60
2023-05-06T03:04:20.118Z,3.80
2023-05-06T03:06:48.878Z,3.95
2023-05-06T03:09:17.948Z,3.35
2023-05-06T03:11:47.789Z,3.53
2023-05-06T03:14:17.134Z,3.58
2023-05-06T03:16:45.953Z,3.63
2023-05-06T03:19:14.954Z,3.53
2023-05-06T03:21:47.288Z,3.33
2023-05-06T03:24:17.638Z,3.28
2023-05-06T03:26:47.033Z,3.47
2023-05-06T03:29:16.361Z,3.30
2023-05-06T03:31:50.332Z,3.42
2023-05-06T03:34:20.261Z,2.92
2023-05-06T03:36:50.586Z,3.05
2023-05-06T03:39:19.529Z,3.92
2023-05-06T03:41:48.356Z,4.13
2023-05-06T03:44:17.715Z,4.07
2023-05-06T03:46:46.758Z,3.22
2023-05-06T03:49:16.022Z,4.53
2023-05-06T03:51:47.568Z,3.03
2023-05-06T03:54:18.652Z,3.50
2023-05-06T03:56:48.498Z,3.85
2023-05-06T03:59:18.186Z,4.00
2023-05-06T04:01:47.502Z,3.40
2023-05-06T04:04:17.893Z,3.40
2023-05-06T04:06:46.669Z,2.90
2023-05-06T04:09:15.682Z,3.03
2023-05-06T04:11:45.744Z,3.40
2023-05-06T04:14:17.747Z,3.30
2023-05-06T04:16:46.910Z,3.60
2023-05-06T04:19:17.542Z,3.50
2023-05-06T04:21:46.706Z,3.22
2023-05-06T04:24:16.935Z,3.15
2023-05-06T04:26:47.274Z,3.53
2023-05-06T04:29:17.285Z,3.22
2023-05-06T04:31:56.539Z,3.35
2023-05-06T04:34:27.851Z,3.20
2023-05-06T04:37:00.446Z,3.17
2023-05-06T04:39:39.359Z,3.30
2023-05-06T04:42:10.659Z,3.35
2023-05-06T04:44:47.459Z,3.28
2023-05-06T04:47:16.350Z,3.42
2023-05-06T04:49:49.232Z,3.08
2023-05-06T04:52:18.471Z,2.92
2023-05-06T04:54:47.456Z,3.63
2023-05-06T04:57:17.647Z,3.30
2023-05-06T04:59:47.393Z,2.78
2023-05-06T05:02:16.288Z,3.72
2023-05-06T05:04:46.121Z,3.33
2023-05-06T05:07:14.917Z,3.30
2023-05-06T05:09:44.026Z,3.10
2023-05-06T05:12:13.505Z,3.28
2023-05-06T05:14:48.457Z,2.90
2023-05-06T05:17:17.233Z,3.53
2023-05-06T05:19:48.252Z,3.15
2023-05-06T05:22:18.072Z,3.17
2023-05-06T05:24:47.216Z,2.58
2023-05-06T05:27:15.925Z,3.67
2023-05-06T05:29:45.015Z,3.30
2023-05-06T05:32:16.173Z,2.90
2023-05-06T05:34:45.243Z,3.20
2023-05-06T05:37:14.314Z,3.15
2023-05-06T05:39:43.267Z,2.85
2023-05-06T05:42:13.289Z,3.08
2023-05-06T05:44:45.081Z,3.33
2023-05-06T05:47:16.044Z,3.20
2023-05-06T05:49:45.701Z,3.03
2023-05-06T05:52:14.814Z,3.20
2023-05-06T05:54:44.649Z,3.15
2023-05-06T05:57:13.858Z,3.33
2023-05-06T05:59:43.640Z,3.38
2023-05-06T06:02:12.335Z,3.00
2023-05-06T06:04:42.674Z,3.08
2023-05-06T06:07:11.697Z,3.13
2023-05-06T06:09:46.711Z,3.47
2023-05-06T06:12:18.125Z,2.72
2023-05-06T06:14:48.543Z,3.00
2023-05-06T06:17:20.433Z,3.13
2023-05-06T06:19:57.120Z,2.90
2023-05-06T06:22:26.499Z,2.47
2023-05-06T06:24:57.399Z,2.30
2023-05-06T06:27:26.172Z,2.60
2023-05-06T06:29:55.145Z,2.67
2023-05-06T06:32:23.843Z,2.75
2023-05-06T06:34:55.687Z,2.63
2023-05-06T06:37:25.281Z,2.80
2023-05-06T06:39:54.281Z,2.60
2023-05-06T06:42:22.983Z,2.33
2023-05-06T06:45:02.226Z,2.47
2023-05-06T06:47:31.069Z,2.33
2023-05-06T06:50:01.439Z,2.70
2023-05-06T06:52:30.140Z,2.88
2023-05-06T06:54:59.310Z,2.75
2023-05-06T06:57:28.155Z,2.60
2023-05-06T06:59:57.114Z,2.60
2023-05-06T07:02:25.936Z,2.30
2023-05-06T07:04:55.291Z,2.60
2023-05-06T07:07:25.361Z,2.83
2023-05-06T07:09:54.281Z,2.50
2023-05-06T07:12:24.468Z,2.28
2023-05-06T07:14:53.447Z,2.53
2023-05-06T07:17:22.209Z,2.47
2023-05-06T07:19:51.238Z,3.30
2023-05-06T07:22:20.363Z,2.33
2023-05-06T07:24:50.655Z,2.50
2023-05-06T07:27:19.374Z,2.40
2023-05-06T07:29:48.313Z,2.35
2023-05-06T07:32:16.996Z,2.70
2023-05-06T07:34:46.079Z,2.15
2023-05-06T07:37:14.712Z,2.50
2023-05-06T07:39:43.700Z,2.20
2023-05-06T07:42:13.710Z,2.13
2023-05-06T07:44:42.679Z,2.33
2023-05-06T07:47:11.581Z,2.33
2023-05-06T07:49:40.556Z,2.75
2023-05-06T07:52:09.248Z,1.90
2023-05-06T07:54:38.242Z,2.20
2023-05-06T07:57:06.912Z,2.35
2023-05-06T07:59:37.246Z,1.88
2023-05-06T08:02:06.125Z,2.47
2023-05-06T08:04:35.294Z,2.00
2023-05-06T08:07:04.045Z,1.95
2023-05-06T08:09:33.018Z,2.03
2023-05-06T08:12:01.700Z,2.33
2023-05-06T08:14:30.838Z,2.17
2023-05-06T08:17:00.907Z,2.40
2023-05-06T08:19:29.908Z,2.00
2023-05-06T08:21:58.609Z,2.33
2023-05-06T08:24:27.841Z,2.20
2023-05-06T08:26:56.469Z,2.15
2023-05-06T08:29:25.394Z,2.25
2023-05-06T08:31:54.084Z,1.73
2023-05-06T08:34:24.418Z,1.95
2023-05-06T08:36:53.197Z,1.95
2023-05-06T08:39:22.273Z,1.92
2023-05-06T08:41:54.149Z,2.05
2023-05-06T08:44:26.009Z,1.70
2023-05-06T08:46:55.686Z,1.70
2023-05-06T08:49:26.848Z,1.80
2023-05-06T08:51:57.234Z,1.80
2023-05-06T08:54:27.454Z,1.70
2023-05-06T08:57:00.479Z,2.38
2023-05-06T08:59:32.892Z,1.70
2023-05-06T09:02:02.990Z,2.10
2023-05-06T09:04:33.522Z,1.88
2023-05-06T09:07:02.630Z,1.60
2023-05-06T09:09:31.433Z,1.92
2023-05-06T09:12:02.839Z,1.70
2023-05-06T09:14:31.699Z,2.10
2023-05-06T09:17:00.668Z,1.70
2023-05-06T09:19:29.465Z,1.83
2023-05-06T09:22:00.046Z,1.60
2023-05-06T09:24:29.023Z,1.77
2023-05-06T09:26:57.971Z,1.77
2023-05-06T09:29:26.832Z,1.70
2023-05-06T09:31:56.460Z,1.90
2023-05-06T09:34:25.274Z,1.90
2023-05-06T09:36:57.180Z,1.90
2023-05-06T09:39:28.623Z,1.92
2023-05-06T09:41:58.159Z,2.00
2023-05-06T09:44:28.284Z,1.90
2023-05-06T09:46:57.477Z,1.67
2023-05-06T09:49:27.448Z,2.15
2023-05-06T09:51:57.732Z,2.00
2023-05-06T09:54:28.821Z,1.75
2023-05-06T09:57:00.871Z,1.77
2023-05-06T09:59:31.166Z,1.58
2023-05-06T10:02:01.207Z,1.80
2023-05-06T10:04:34.634Z,1.90
2023-05-06T10:07:05.195Z,1.90
2023-05-06T10:09:37.890Z,2.25
2023-05-06T10:12:09.377Z,1.73
2023-05-06T10:14:38.860Z,2.00
2023-05-06T10:17:10.716Z,1.70
2023-05-06T10:19:43.569Z,1.65
2023-05-06T10:22:23.507Z,2.17
2023-05-06T10:25:05.629Z,2.20
2023-05-06T10:27:41.744Z,2.10
2023-05-06T10:30:12.612Z,1.75
2023-05-06T10:32:45.590Z,1.52
2023-05-06T10:35:28.732Z,2.40
2023-05-06T10:37:58.809Z,2.40
2023-05-06T10:40:29.136Z,2.20
2023-05-06T10:43:26.909Z,1.90
2023-05-06T10:46:09.203Z,2.10
2023-05-06T10:48:40.508Z,1.92
2023-05-06T10:51:29.173Z,2.15
2023-05-06T10:54:04.172Z,1.80
2023-05-06T10:56:37.574Z,2.03
2023-05-06T10:59:09.298Z,1.85
2023-05-06T11:01:40.790Z,2.00
2023-05-06T11:04:12.856Z,1.95
2023-05-06T11:06:44.669Z,2.20
2023-05-06T11:09:19.323Z,2.08
2023-05-06T11:11:53.229Z,1.75
2023-05-06T11:14:30.652Z,1.42
2023-05-06T11:17:01.653Z,2.00
2023-05-06T11:19:32.812Z,1.83
2023-05-06T11:22:04.016Z,1.60
2023-05-06T11:24:42.471Z,1.77
2023-05-06T11:27:12.847Z,1.98
2023-05-06T11:29:45.432Z,2.00
2023-05-06T11:32:26.279Z,1.80
2023-05-06T11:34:57.484Z,1.90
2023-05-06T11:37:28.243Z,1.88
2023-05-06T11:39:57.335Z,2.00
2023-05-06T11:42:29.354Z,2.63
2023-05-06T11:45:02.511Z,1.80
2023-05-06T11:47:32.771Z,2.03
2023-05-06T11:50:07.538Z,1.90
2023-05-06T11:52:37.256Z,2.03
2023-05-06T11:55:10.988Z,2.38
2023-05-06T11:57:46.904Z,2.30
2023-05-06T12:00:18.762Z,2.10
2023-05-06T12:02:47.585Z,2.15
2023-05-06T12:05:16.754Z,2.38
2023-05-06T12:07:46.581Z,2.67
2023-05-06T12:10:17.261Z,2.20
2023-05-06T12:12:47.789Z,2.10
2023-05-06T12:15:17.412Z,2.55
2023-05-06T12:17:46.356Z,2.85
2023-05-06T12:20:16.073Z,3.70
2023-05-06T12:22:44.845Z,3.38
2023-05-06T12:25:17.865Z,3.50
2023-05-06T12:27:47.921Z,3.03
2023-05-06T12:30:17.119Z,3.35
2023-05-06T12:32:58.693Z,2.85
2023-05-06T12:35:29.066Z,3.70
2023-05-06T12:37:58.314Z,3.30
2023-05-06T12:40:27.256Z,3.30
2023-05-06T12:42:57.747Z,3.22
2023-05-06T12:45:27.630Z,3.58
2023-05-06T12:47:59.274Z,2.90
2023-05-06T12:50:36.804Z,3.20
2023-05-06T12:53:07.234Z,3.08
2023-05-06T12:55:38.326Z,3.13
2023-05-06T12:58:21.579Z,3.38
2023-05-06T13:00:50.625Z,3.50
2023-05-06T13:03:20.195Z,3.13
2023-05-06T13:05:50.417Z,3.95
2023-05-06T13:08:19.201Z,3.70
2023-05-06T13:10:48.269Z,4.00
2023-05-06T13:13:18.441Z,3.88
2023-05-06T13:15:47.606Z,3.58
2023-05-06T13:18:16.301Z,3.20
2023-05-06T13:20:46.002Z,3.38
2023-05-06T13:23:15.039Z,3.70
2023-05-06T13:25:56.366Z,3.92
2023-05-06T13:28:36.722Z,3.88
2023-05-06T13:31:06.249Z,3.88
2023-05-06T13:33:36.491Z,3.92
2023-05-06T13:36:06.428Z,5.05
2023-05-06T13:38:35.235Z,4.63
2023-05-06T13:41:04.242Z,4.15
2023-05-06T13:43:34.363Z,4.05
2023-05-06T13:46:03.904Z,3.65
2023-05-06T13:48:32.705Z,3.70
2023-05-06T13:51:01.734Z,4.30
2023-05-06T13:53:30.369Z,4.25
2023-05-06T13:55:59.253Z,3.70
2023-05-06T13:58:27.935Z,3.92
2023-05-06T14:00:58.275Z,4.03
2023-05-06T14:03:27.277Z,4.82
2023-05-06T14:05:56.327Z,4.28
2023-05-06T14:08:25.046Z,5.22
2023-05-06T14:10:54.050Z,4.70
2023-05-06T14:13:22.841Z,5.15
2023-05-06T14:15:51.939Z,5.25
2023-05-06T14:18:22.830Z,5.00
2023-05-06T14:20:52.711Z,4.75
2023-05-06T14:23:21.451Z,4.43
2023-05-06T14:25:50.549Z,4.35
2023-05-06T14:28:19.553Z,4.90
2023-05-06T14:30:48.617Z,4.55
2023-05-06T14:33:17.334Z,4.40
2023-05-06T14:35:48.436Z,4.40
2023-05-06T14:38:18.751Z,3.85
2023-05-06T14:40:47.743Z,4.20
2023-05-06T14:43:16.405Z,4.03
2023-05-06T14:45:45.418Z,4.60
2023-05-06T14:48:14.196Z,4.30
2023-05-06T14:50:43.146Z,4.53
2023-05-06T14:53:13.287Z,4.55
2023-05-06T14:55:42.356Z,4.57
2023-05-06T14:58:11.021Z,4.47
2023-05-06T15:00:39.952Z,4.63
2023-05-06T15:03:08.685Z,5.38
2023-05-06T15:05:37.998Z,4.72
2023-05-06T15:08:07.401Z,4.85
2023-05-06T15:10:37.986Z,5.63
2023-05-06T15:13:06.992Z,6.18
2023-05-06T15:15:36.078Z,5.20
2023-05-06T15:18:05.078Z,5.65
2023-05-06T15:20:34.134Z,5.30
2023-05-06T15:23:02.763Z,5.80
2023-05-06T15:25:36.013Z,5.78
2023-05-06T15:28:07.155Z,5.50
2023-05-06T15:30:38.289Z,5.70
2023-05-06T15:33:07.215Z,5.90
2023-05-06T15:35:36.244Z,5.50
2023-05-06T15:38:05.680Z,5.78
2023-05-06T15:40:34.813Z,5.50
2023-05-06T15:43:05.432Z,5.80
2023-05-06T15:45:36.195Z,5.57
2023-05-06T15:48:05.208Z,5.07
2023-05-06T15:50:34.477Z,5.40
2023-05-06T15:53:04.044Z,5.57
2023-05-06T15:55:42.355Z,6.55
2023-05-06T15:58:14.046Z,5.63
2023-05-06T16:00:44.505Z,5.78
2023-05-06T16:03:13.623Z,5.65
2023-05-06T16:05:42.840Z,6.03
2023-05-06T16:08:11.580Z,6.30
2023-05-06T16:10:40.748Z,5.93
2023-05-06T16:13:09.433Z,6.18
2023-05-06T16:15:38.543Z,7.10
2023-05-06T16:18:08.640Z,6.28
2023-05-06T16:20:37.838Z,6.18
2023-05-06T16:23:06.827Z,6.57
2023-05-06T16:25:37.811Z,6.38
2023-05-06T16:28:07.168Z,7.13
2023-05-06T16:30:36.407Z,7.13
2023-05-06T16:33:06.061Z,6.45
2023-05-06T16:35:36.502Z,7.22
2023-05-06T16:38:05.177Z,7.00
2023-05-06T16:40:41.150Z,6.28
2023-05-06T16:43:10.113Z,6.38
2023-05-06T16:45:39.733Z,6.53
2023-05-06T16:48:08.582Z,6.55
2023-05-06T16:50:38.914Z,6.22
2023-05-06T16:53:08.217Z,6.45
2023-05-06T16:55:37.543Z,6.10
2023-05-06T16:58:06.413Z,6.55
2023-05-06T17:00:35.527Z,6.75
2023-05-06T17:03:04.657Z,6.75
2023-05-06T17:05:33.794Z,6.63
2023-05-06T17:08:04.476Z,6.35
2023-05-06T17:10:33.525Z,6.53
2023-05-06T17:13:02.427Z,6.38
2023-05-06T17:15:31.375Z,5.93
2023-05-06T17:18:00.027Z,6.30
2023-05-06T17:20:29.279Z,6.70
2023-05-06T17:22:57.960Z,6.18
2023-05-06T17:25:28.198Z,6.57
2023-05-06T17:27:56.892Z,6.25
2023-05-06T17:30:26.094Z,6.78
2023-05-06T17:32:56.201Z,6.63
2023-05-06T17:35:26.177Z,6.47
2023-05-06T17:37:55.113Z,6.10
2023-05-06T17:40:24.484Z,5.85
2023-05-06T17:42:54.565Z,6.22
2023-05-06T17:45:25.348Z,5.80
2023-05-06T17:47:54.191Z,5.95
2023-05-06T17:50:23.587Z,5.85
2023-05-06T17:52:52.977Z,6.40
2023-05-06T17:55:22.734Z,5.78
2023-05-06T17:57:52.568Z,5.72
2023-05-06T18:00:23.411Z,5.80
2023-05-06T18:02:52.472Z,5.80
2023-05-06T18:05:21.827Z,5.63
2023-05-06T18:07:50.523Z,5.53
2023-05-06T18:10:20.520Z,5.63
2023-05-06T18:12:49.407Z,5.85
2023-05-06T18:15:18.444Z,4.90
2023-05-06T18:17:48.484Z,6.18
2023-05-06T18:20:17.766Z,5.55
2023-05-06T18:22:46.448Z,6.07
2023-05-06T18:25:15.494Z,6.05
2023-05-06T18:27:44.241Z,5.70
2023-05-06T18:30:14.177Z,5.88
2023-05-06T18:32:42.840Z,5.22
2023-05-06T18:35:13.524Z,6.05
2023-05-06T18:37:42.387Z,5.80
2023-05-06T18:40:12.813Z,6.53
2023-05-06T18:42:41.646Z,6.25
2023-05-06T18:45:12.101Z,5.70
2023-05-06T18:47:41.149Z,6.20
2023-05-06T18:50:12.518Z,6.50
2023-05-06T18:52:41.382Z,6.20
2023-05-06T18:55:11.051Z,6.05
2023-05-06T18:57:39.882Z,5.70
2023-05-06T19:00:10.979Z,6.55
2023-05-06T19:02:39.760Z,6.40
2023-05-06T19:05:11.298Z,5.97
2023-05-06T19:07:41.582Z,6.00
2023-05-06T19:10:11.478Z,5.75
2023-05-06T19:12:41.615Z,5.93
2023-05-06T19:15:14.080Z,5.72
2023-05-06T19:17:42.824Z,5.72
2023-05-06T19:20:14.402Z,5.93
2023-05-06T19:22:44.773Z,5.93
2023-05-06T19:25:14.066Z,5.57
2023-05-06T19:27:42.755Z,6.32
2023-05-06T19:30:12.465Z,5.72
2023-05-06T19:32:41.178Z,6.07
2023-05-06T19:35:11.125Z,5.63
2023-05-06T19:37:40.376Z,6.35
2023-05-06T19:40:12.121Z,5.88
2023-05-06T19:42:40.846Z,5.40
2023-05-06T19:45:11.853Z,5.97
2023-05-06T19:47:40.992Z,5.93
2023-05-06T19:50:11.242Z,5.85
2023-05-06T19:52:40.243Z,6.07
2023-05-06T19:55:12.856Z,5.63
2023-05-06T19:57:41.755Z,5.38
2023-05-06T20:00:13.977Z,5.43
2023-05-06T20:02:42.766Z,5.53
2023-05-06T20:05:12.385Z,5.43
2023-05-06T20:07:41.391Z,5.72
2023-05-06T20:10:13.677Z,5.35
2023-05-06T20:12:42.779Z,6.05
2023-05-06T20:15:12.556Z,4.95
2023-05-06T20:17:41.513Z,4.85
2023-05-06T20:20:11.690Z,5.63
2023-05-06T20:22:41.864Z,5.13
2023-05-06T20:25:16.167Z,5.05
2023-05-06T20:27:46.405Z,5.50
2023-05-06T20:30:15.777Z,5.30
2023-05-06T20:32:44.537Z,4.88
2023-05-06T20:35:15.152Z,4.93
2023-05-06T20:37:44.140Z,5.25
2023-05-06T20:40:15.871Z,5.30
2023-05-06T20:42:44.544Z,5.10
2023-05-06T20:45:13.963Z,4.75
2023-05-06T20:47:42.793Z,5.50
2023-05-06T20:50:16.906Z,4.93
2023-05-06T20:52:48.324Z,5.30
2023-05-06T20:55:20.635Z,5.05
2023-05-06T20:57:49.915Z,5.60
2023-05-06T21:00:20.024Z,4.97
2023-05-06T21:02:48.855Z,5.57
2023-05-06T21:05:18.059Z,5.18
2023-05-06T21:07:47.135Z,4.90
2023-05-06T21:10:16.202Z,5.35
2023-05-06T21:12:50.860Z,4.97
2023-05-06T21:15:20.194Z,5.65
2023-05-06T21:17:49.983Z,5.18
2023-05-06T21:20:19.525Z,5.03
2023-05-06T21:22:49.259Z,5.28
2023-05-06T21:25:18.272Z,5.20
2023-05-06T21:27:46.934Z,4.70
2023-05-06T21:30:17.451Z,5.32
2023-05-06T21:32:46.615Z,5.60
2023-05-06T21:35:16.371Z,5.03
2023-05-06T21:37:45.007Z,5.20
2023-05-06T21:40:14.560Z,5.45
2023-05-06T21:42:43.235Z,5.10
2023-05-06T21:45:13.543Z,4.93
2023-05-06T21:47:43.830Z,5.95
2023-05-06T21:50:13.639Z,5.15
2023-05-06T21:52:42.612Z,4.88
2023-05-06T21:55:11.975Z,5.47
2023-05-06T21:57:40.827Z,5.30
2023-05-06T22:00:12.387Z,5.20
2023-05-06T22:02:42.979Z,5.45
2023-05-06T22:05:12.330Z,4.55
2023-05-06T22:07:41.867Z,5.10
2023-05-06T22:10:11.756Z,5.18
2023-05-06T22:12:40.654Z,4.72
2023-05-06T22:15:11.138Z,5.05
2023-05-06T22:17:40.081Z,5.15
2023-05-06T22:20:12.055Z,4.63
2023-05-06T22:22:40.766Z,5.43
2023-05-06T22:25:11.236Z,5.38
2023-05-06T22:27:40.351Z,5.18
2023-05-06T22:30:11.653Z,5.22
2023-05-06T22:32:40.361Z,4.38
2023-05-06T22:35:11.393Z,4.60
2023-05-06T22:37:40.201Z,5.82
2023-05-06T22:40:11.017Z,4.75
2023-05-06T22:42:39.806Z,4.43
2023-05-06T22:45:12.383Z,4.75
2023-05-06T22:47:41.393Z,5.22
2023-05-06T22:50:13.114Z,4.55
2023-05-06T22:52:41.906Z,4.70
2023-05-06T22:55:11.319Z,4.65
2023-05-06T22:57:40.288Z,4.47
2023-05-06T23:00:12.561Z,4.22
2023-05-06T23:02:41.726Z,4.15
2023-05-06T23:05:12.651Z,4.30
2023-05-06T23:07:41.673Z,4.10
2023-05-06T23:10:11.256Z,4.47
2023-05-06T23:12:40.202Z,4.00
2023-05-06T23:15:11.027Z,3.92
2023-05-06T23:17:39.866Z,3.95
2023-05-06T23:20:12.803Z,4.20
2023-05-06T23:22:41.566Z,4.03
2023-05-06T23:25:12.213Z,3.90
2023-05-06T23:27:41.628Z,4.07
2023-05-06T23:30:13.715Z,3.80
2023-05-06T23:32:42.458Z,3.97
2023-05-06T23:35:12.953Z,3.50
2023-05-06T23:37:41.688Z,3.83
2023-05-06T23:40:13.431Z,3.97
2023-05-06T23:42:42.056Z,3.85
2023-05-06T23:45:12.025Z,3.70
2023-05-06T23:47:41.071Z,3.90
2023-05-06T23:50:12.200Z,3.65
2023-05-06T23:52:41.141Z,4.03
2023-05-06T23:55:10.770Z,4.05
2023-05-06T23:57:39.585Z,3.85
